createdAt,value
2019-06-26T00:00:27.825Z,4.40
2019-06-26T00:02:56.507Z,4.00
2019-06-26T00:05:25.037Z,4.30
2019-06-26T00:07:53.666Z,5.00
2019-06-26T00:10:22.195Z,4.30
2019-06-26T00:12:50.862Z,4.53
2019-06-26T00:15:19.548Z,4.33
2019-06-26T00:17:48.089Z,4.27
2019-06-26T00:20:17.066Z,4.63
2019-06-26T00:22:45.686Z,4.57
2019-06-26T00:25:14.389Z,4.63
2019-06-26T00:27:42.938Z,5.10
2019-06-26T00:30:12.170Z,5.13
2019-06-26T00:32:40.725Z,4.27
2019-06-26T00:35:08.628Z,4.33
2019-06-26T00:37:37.180Z,3.90
2019-06-26T00:40:07.765Z,4.13
2019-06-26T00:42:36.414Z,5.03
2019-06-26T00:45:07.461Z,4.00
2019-06-26T00:47:36.180Z,3.70
2019-06-26T00:50:06.866Z,4.70
2019-06-26T00:52:35.404Z,4.20
2019-06-26T00:55:07.391Z,3.57
2019-06-26T00:57:36.063Z,4.13
2019-06-26T01:00:10.025Z,4.63
2019-06-26T01:02:38.754Z,3.83
2019-06-26T01:05:12.078Z,4.20
2019-06-26T01:07:40.740Z,4.70
2019-06-26T01:10:10.858Z,4.43
2019-06-26T01:12:39.508Z,4.17
2019-06-26T01:15:08.499Z,5.17
2019-06-26T01:17:37.036Z,5.20
2019-06-26T01:20:08.721Z,4.63
2019-06-26T01:22:37.381Z,5.10
2019-06-26T01:25:06.455Z,4.37
2019-06-26T01:27:35.061Z,4.63
2019-06-26T01:30:05.408Z,4.50
2019-06-26T01:32:33.922Z,4.70
2019-06-26T01:35:03.242Z,5.10
2019-06-26T01:37:31.770Z,4.17
2019-06-26T01:40:00.303Z,4.73
2019-06-26T01:42:28.835Z,4.90
2019-06-26T01:44:57.380Z,5.00
2019-06-26T01:47:25.897Z,4.63
2019-06-26T01:49:54.450Z,5.00
2019-06-26T01:52:23.001Z,4.73
2019-06-26T01:54:51.533Z,4.07
2019-06-26T01:57:20.099Z,4.57
2019-06-26T01:59:48.655Z,4.77
2019-06-26T02:02:17.255Z,4.70
2019-06-26T02:04:45.794Z,4.13
2019-06-26T02:07:14.333Z,4.33
2019-06-26T02:09:42.933Z,4.80
2019-06-26T02:12:11.556Z,4.70
2019-06-26T02:14:40.083Z,5.07
2019-06-26T02:17:08.661Z,4.53
2019-06-26T02:19:37.190Z,4.80
2019-06-26T02:22:05.707Z,4.30
2019-06-26T02:24:34.279Z,4.63
2019-06-26T02:27:02.807Z,4.90
2019-06-26T02:29:31.361Z,4.30
2019-06-26T02:31:59.892Z,4.90
2019-06-26T02:34:28.425Z,4.70
2019-06-26T02:36:56.955Z,5.10
2019-06-26T02:39:25.510Z,3.90
2019-06-26T02:41:54.107Z,4.57
2019-06-26T02:44:22.647Z,4.93
2019-06-26T02:46:51.185Z,4.70
2019-06-26T02:49:19.727Z,4.23
2019-06-26T02:51:48.349Z,4.30
2019-06-26T02:54:16.984Z,4.50
2019-06-26T02:56:45.518Z,5.30
2019-06-26T02:59:14.049Z,4.47
2019-06-26T03:01:42.925Z,4.50
2019-06-26T03:04:11.471Z,3.83
2019-06-26T03:06:40.019Z,4.07
2019-06-26T03:09:08.628Z,4.77
2019-06-26T03:11:37.180Z,4.37
2019-06-26T03:14:05.771Z,6.20
2019-06-26T03:16:34.383Z,4.30
2019-06-26T03:19:02.921Z,4.20
2019-06-26T03:21:31.498Z,3.97
2019-06-26T03:24:00.024Z,7.30
2019-06-26T03:26:28.640Z,4.87
2019-06-26T03:28:57.197Z,4.00
2019-06-26T03:31:25.781Z,4.27
2019-06-26T03:33:54.399Z,4.37
2019-06-26T03:36:22.982Z,3.83
2019-06-26T03:38:51.493Z,4.70
2019-06-26T03:41:20.214Z,3.90
2019-06-26T03:43:48.726Z,4.10
2019-06-26T03:46:17.265Z,4.67
2019-06-26T03:48:45.806Z,4.03
2019-06-26T03:51:14.423Z,4.30
2019-06-26T03:53:42.971Z,4.20
2019-06-26T03:56:11.570Z,4.23
2019-06-26T03:58:40.070Z,3.90
2019-06-26T04:01:08.617Z,4.30
2019-06-26T04:03:37.136Z,4.00
2019-06-26T04:06:05.665Z,4.00
2019-06-26T04:08:34.187Z,4.80
2019-06-26T04:11:02.904Z,4.43
2019-06-26T04:13:31.355Z,4.57
2019-06-26T04:15:59.904Z,5.00
2019-06-26T04:18:28.433Z,4.47
2019-06-26T04:20:56.981Z,3.70
2019-06-26T04:23:25.522Z,4.20
2019-06-26T04:25:54.125Z,3.77
2019-06-26T04:28:22.988Z,4.60
2019-06-26T04:30:51.544Z,4.37
2019-06-26T04:33:20.085Z,4.23
2019-06-26T04:35:48.659Z,4.20
2019-06-26T04:38:17.174Z,4.63
2019-06-26T04:40:45.757Z,4.13
2019-06-26T04:43:14.305Z,3.93
2019-06-26T04:45:57.167Z,4.03
2019-06-26T04:48:13.889Z,4.03
2019-06-26T04:50:42.572Z,3.97
2019-06-26T04:53:11.122Z,4.10
2019-06-26T04:55:39.653Z,4.07
2019-06-26T04:58:08.303Z,4.30
2019-06-26T05:00:36.923Z,4.60
2019-06-26T05:03:05.799Z,4.33
2019-06-26T05:05:39.546Z,4.20
2019-06-26T05:08:04.730Z,4.83
2019-06-26T05:10:33.265Z,3.50
2019-06-26T05:13:01.874Z,4.10
2019-06-26T05:15:30.417Z,4.70
2019-06-26T05:17:58.946Z,4.40
2019-06-26T05:20:27.630Z,4.40
2019-06-26T05:22:56.158Z,4.10
2019-06-26T05:25:24.690Z,4.20
2019-06-26T05:27:53.236Z,3.97
2019-06-26T05:30:22.434Z,3.83
2019-06-26T05:32:50.965Z,3.93
2019-06-26T05:35:19.745Z,4.20
2019-06-26T05:37:48.252Z,4.33
2019-06-26T05:40:17.135Z,4.47
2019-06-26T05:42:45.715Z,4.37
2019-06-26T05:45:15.005Z,4.23
2019-06-26T05:47:43.515Z,4.30
2019-06-26T05:50:12.931Z,3.97
2019-06-26T05:52:43.057Z,4.40
2019-06-26T05:55:12.227Z,4.00
2019-06-26T05:57:41.879Z,4.30
2019-06-26T06:00:11.382Z,3.60
2019-06-26T06:02:39.990Z,4.13
2019-06-26T06:05:10.042Z,4.27
2019-06-26T06:07:38.784Z,4.90
2019-06-26T06:10:08.347Z,4.60
2019-06-26T06:12:36.964Z,4.50
2019-06-26T06:15:07.481Z,3.80
2019-06-26T06:17:36.279Z,4.00
2019-06-26T06:20:06.360Z,4.20
2019-06-26T06:22:34.962Z,4.30
2019-06-26T06:25:03.797Z,4.03
2019-06-26T06:27:32.456Z,5.07
2019-06-26T06:30:01.019Z,5.20
2019-06-26T06:32:29.572Z,4.97
2019-06-26T06:34:59.675Z,4.63
2019-06-26T06:37:28.330Z,4.93
2019-06-26T06:39:56.832Z,5.40
2019-06-26T06:42:25.407Z,4.93
2019-06-26T06:44:53.960Z,3.90
2019-06-26T06:47:22.522Z,4.13
2019-06-26T06:49:51.153Z,4.00
2019-06-26T06:52:19.769Z,4.57
2019-06-26T06:54:48.363Z,4.73
2019-06-26T06:57:20.115Z,4.67
2019-06-26T06:59:48.691Z,4.00
2019-06-26T07:02:17.291Z,4.73
2019-06-26T07:04:45.827Z,5.00
2019-06-26T07:07:14.350Z,4.67
2019-06-26T07:09:42.869Z,3.50
2019-06-26T07:12:11.468Z,3.43
2019-06-26T07:14:39.995Z,4.70
2019-06-26T07:17:19.912Z,4.70
2019-06-26T07:19:38.789Z,4.80
2019-06-26T07:22:07.537Z,4.60
2019-06-26T07:24:36.064Z,4.10
2019-06-26T07:27:04.582Z,4.47
2019-06-26T07:29:33.131Z,3.90
2019-06-26T07:32:01.669Z,4.00
2019-06-26T07:34:30.285Z,4.10
2019-06-26T07:36:58.802Z,4.10
2019-06-26T07:39:27.322Z,3.40
2019-06-26T07:41:55.868Z,4.23
2019-06-26T07:44:24.403Z,3.50
2019-06-26T07:46:52.926Z,3.60
2019-06-26T07:49:21.469Z,3.87
2019-06-26T07:51:49.999Z,4.47
2019-06-26T07:54:18.609Z,4.60
2019-06-26T07:56:47.116Z,3.80
2019-06-26T07:59:15.651Z,4.40
2019-06-26T08:01:44.196Z,4.90
2019-06-26T08:04:12.726Z,4.87
2019-06-26T08:06:41.281Z,4.33
2019-06-26T08:09:09.789Z,4.87
2019-06-26T08:11:38.386Z,4.50
2019-06-26T08:14:06.999Z,4.55
2019-06-26T08:16:35.623Z,4.58
2019-06-26T08:19:04.161Z,4.10
2019-06-26T08:21:32.703Z,4.67
2019-06-26T08:24:01.234Z,4.28
2019-06-26T08:26:29.859Z,5.33
2019-06-26T08:28:58.422Z,4.53
2019-06-26T08:31:26.950Z,3.83
2019-06-26T08:33:55.514Z,5.10
2019-06-26T08:36:24.011Z,4.37
2019-06-26T08:38:52.544Z,5.10
2019-06-26T08:41:21.163Z,4.95
2019-06-26T08:43:49.700Z,4.25
2019-06-26T08:46:18.236Z,5.10
2019-06-26T08:48:46.782Z,4.97
2019-06-26T08:51:15.306Z,6.55
2019-06-26T08:53:43.823Z,5.22
2019-06-26T08:56:12.363Z,4.97
2019-06-26T08:58:41.074Z,4.40
2019-06-26T09:01:09.605Z,4.90
2019-06-26T09:03:41.907Z,5.20
2019-06-26T09:06:08.401Z,5.55
2019-06-26T09:08:39.972Z,4.67
2019-06-26T09:11:08.504Z,5.58
2019-06-26T09:13:37.074Z,4.80
2019-06-26T09:16:05.565Z,4.62
2019-06-26T09:18:35.751Z,4.87
2019-06-26T09:21:04.437Z,4.87
2019-06-26T09:23:33.058Z,5.17
2019-06-26T09:26:01.622Z,4.78
2019-06-26T09:28:30.212Z,4.95
2019-06-26T09:30:58.917Z,4.70
2019-06-26T09:33:27.572Z,4.95
2019-06-26T09:35:56.212Z,5.12
2019-06-26T09:38:24.751Z,5.35
2019-06-26T09:40:53.318Z,4.92
2019-06-26T09:43:21.911Z,4.87
2019-06-26T09:45:50.424Z,5.90
2019-06-26T09:48:18.992Z,5.95
2019-06-26T09:50:47.545Z,5.87
2019-06-26T09:53:16.068Z,5.00
2019-06-26T09:55:44.612Z,5.28
2019-06-26T09:58:13.803Z,6.28
2019-06-26T10:00:42.453Z,5.00
2019-06-26T10:03:10.985Z,5.85
2019-06-26T10:05:39.541Z,5.80
2019-06-26T10:08:08.089Z,6.62
2019-06-26T10:10:36.601Z,5.85
2019-06-26T10:13:05.233Z,6.10
2019-06-26T10:15:34.157Z,5.47
2019-06-26T10:18:02.667Z,6.08
2019-06-26T10:20:31.227Z,5.15
2019-06-26T10:22:59.936Z,5.62
2019-06-26T10:25:28.450Z,5.75
2019-06-26T10:27:57.073Z,5.53
2019-06-26T10:30:25.740Z,5.62
2019-06-26T10:32:54.292Z,5.45
2019-06-26T10:35:23.010Z,5.80
2019-06-26T10:37:52.623Z,5.03
2019-06-26T10:40:21.455Z,5.17
2019-06-26T10:42:50.454Z,4.92
2019-06-26T10:45:19.544Z,5.47
2019-06-26T10:47:48.071Z,5.03
2019-06-26T10:50:17.513Z,5.20
2019-06-26T10:52:46.080Z,5.85
2019-06-26T10:55:14.945Z,5.00
2019-06-26T10:57:43.569Z,5.20
2019-06-26T11:00:14.013Z,5.35
2019-06-26T11:02:42.683Z,5.33
2019-06-26T11:05:13.422Z,5.42
2019-06-26T11:07:41.976Z,5.78
2019-06-26T11:10:11.334Z,5.03
2019-06-26T11:12:39.956Z,4.55
2019-06-26T11:15:09.254Z,4.80
2019-06-26T11:17:37.866Z,4.90
2019-06-26T11:20:09.911Z,4.83
2019-06-26T11:22:38.492Z,5.45
2019-06-26T11:25:08.122Z,5.30
2019-06-26T11:27:36.802Z,5.42
2019-06-26T11:30:10.383Z,5.53
2019-06-26T11:32:38.991Z,4.87
2019-06-26T11:35:08.246Z,4.65
2019-06-26T11:37:37.846Z,5.33
2019-06-26T11:40:08.027Z,5.33
2019-06-26T11:42:36.723Z,5.45
2019-06-26T11:45:07.668Z,4.83
2019-06-26T11:47:36.396Z,5.85
2019-06-26T11:50:09.887Z,5.40
2019-06-26T11:52:38.774Z,5.70
2019-06-26T11:55:11.350Z,5.72
2019-06-26T11:57:40.046Z,5.22
2019-06-26T12:00:11.917Z,5.33
2019-06-26T12:02:40.764Z,5.55
2019-06-26T12:05:10.166Z,5.67
2019-06-26T12:07:38.781Z,5.12
2019-06-26T12:10:09.654Z,5.90
2019-06-26T12:12:38.189Z,5.62
2019-06-26T12:15:07.914Z,5.33
2019-06-26T12:17:36.526Z,6.28
2019-06-26T12:20:17.903Z,5.40
2019-06-26T12:22:36.736Z,5.55
2019-06-26T12:25:06.398Z,6.03
2019-06-26T12:27:35.042Z,5.45
2019-06-26T12:30:05.211Z,6.47
2019-06-26T12:32:41.764Z,5.97
2019-06-26T12:35:07.868Z,5.40
2019-06-26T12:37:38.101Z,5.47
2019-06-26T12:40:08.109Z,5.70
2019-06-26T12:42:36.940Z,5.85
2019-06-26T12:45:07.539Z,5.37
2019-06-26T12:47:36.192Z,5.47
2019-06-26T12:50:07.036Z,5.85
2019-06-26T12:52:35.668Z,6.08
2019-06-26T12:55:06.293Z,5.95
2019-06-26T12:57:35.010Z,6.67
2019-06-26T13:00:05.478Z,6.42
2019-06-26T13:02:34.058Z,6.22
2019-06-26T13:05:02.892Z,6.03
2019-06-26T13:07:31.405Z,5.92
2019-06-26T13:10:00.010Z,6.03
2019-06-26T13:12:28.544Z,6.47
2019-06-26T13:14:57.143Z,6.12
2019-06-26T13:17:25.694Z,5.83
2019-06-26T13:19:54.270Z,6.40
2019-06-26T13:22:22.768Z,6.58
2019-06-26T13:24:51.322Z,6.40
2019-06-26T13:27:19.845Z,6.17
2019-06-26T13:29:48.398Z,6.92
2019-06-26T13:32:17.050Z,7.03
2019-06-26T13:34:45.525Z,6.35
2019-06-26T13:37:14.077Z,6.35
2019-06-26T13:39:42.594Z,6.72
2019-06-26T13:42:11.129Z,6.28
2019-06-26T13:44:39.681Z,7.00
2019-06-26T13:47:08.270Z,7.03
2019-06-26T13:49:36.819Z,6.53
2019-06-26T13:52:05.378Z,6.53
2019-06-26T13:54:33.934Z,6.33
2019-06-26T13:57:02.455Z,6.53
2019-06-26T13:59:30.998Z,7.08
2019-06-26T14:01:59.537Z,7.37
2019-06-26T14:04:28.053Z,7.08
2019-06-26T14:06:56.624Z,6.83
2019-06-26T14:09:25.179Z,6.53
2019-06-26T14:11:53.744Z,6.60
2019-06-26T14:14:37.732Z,6.42
2019-06-26T14:16:52.707Z,6.78
2019-06-26T14:19:21.237Z,7.05
2019-06-26T14:21:49.789Z,6.78
2019-06-26T14:24:18.315Z,7.15
2019-06-26T14:26:46.873Z,6.40
2019-06-26T14:29:20.783Z,6.70
2019-06-26T14:31:45.680Z,6.65
2019-06-26T14:34:14.210Z,7.00
2019-06-26T14:36:42.744Z,7.25
2019-06-26T14:39:11.375Z,6.47
2019-06-26T14:41:39.897Z,7.10
2019-06-26T14:44:08.507Z,6.37
2019-06-26T14:46:37.112Z,7.03
2019-06-26T14:49:05.644Z,6.78
2019-06-26T14:51:46.418Z,6.92
2019-06-26T14:54:04.578Z,7.37
2019-06-26T14:56:33.093Z,6.55
2019-06-26T14:59:02.445Z,7.17
2019-06-26T15:01:31.052Z,7.15
2019-06-26T15:04:00.249Z,6.85
2019-06-26T15:06:28.765Z,7.10
2019-06-26T15:08:57.344Z,7.03
2019-06-26T15:11:25.839Z,6.90
2019-06-26T15:13:54.404Z,7.28
2019-06-26T15:16:22.952Z,6.80
2019-06-26T15:18:51.486Z,7.15
2019-06-26T15:21:19.995Z,6.90
2019-06-26T15:23:48.604Z,6.95
2019-06-26T15:26:17.169Z,6.80
2019-06-26T15:28:45.755Z,7.40
2019-06-26T15:31:14.271Z,7.08
2019-06-26T15:33:42.820Z,6.80
2019-06-26T15:36:11.431Z,7.17
2019-06-26T15:38:39.992Z,6.90
2019-06-26T15:41:08.524Z,7.22
2019-06-26T15:43:37.076Z,7.20
2019-06-26T15:46:05.698Z,6.87
2019-06-26T15:48:34.219Z,7.28
2019-06-26T15:51:02.912Z,6.67
2019-06-26T15:53:31.425Z,7.10
2019-06-26T15:56:00.088Z,6.25
2019-06-26T15:58:28.610Z,7.53
2019-06-26T16:00:57.162Z,7.37
2019-06-26T16:03:25.714Z,6.60
2019-06-26T16:05:54.252Z,7.30
2019-06-26T16:08:22.799Z,6.33
2019-06-26T16:10:51.313Z,6.22
2019-06-26T16:13:20.077Z,6.53
2019-06-26T16:15:48.624Z,6.78
2019-06-26T16:18:33.679Z,6.80
2019-06-26T16:21:02.206Z,6.60
2019-06-26T16:23:30.721Z,6.92
2019-06-26T16:25:59.258Z,6.55
2019-06-26T16:28:27.910Z,6.80
2019-06-26T16:30:56.438Z,6.85
2019-06-26T16:33:25.021Z,6.45
2019-06-26T16:35:53.555Z,7.62
2019-06-26T16:38:22.144Z,7.00
2019-06-26T16:40:50.763Z,8.30
2019-06-26T16:43:19.355Z,7.00
2019-06-26T16:45:47.898Z,7.10
2019-06-26T16:48:16.418Z,7.05
2019-06-26T16:50:44.954Z,7.22
2019-06-26T16:53:13.487Z,6.78
2019-06-26T16:55:42.042Z,6.35
2019-06-26T16:58:10.567Z,6.97
2019-06-26T17:00:39.087Z,6.95
2019-06-26T17:03:07.734Z,7.10
2019-06-26T17:05:36.258Z,6.25
2019-06-26T17:08:04.984Z,6.65
2019-06-26T17:10:33.516Z,7.20
2019-06-26T17:13:02.128Z,6.53
2019-06-26T17:15:30.654Z,7.05
2019-06-26T17:17:59.182Z,7.72
2019-06-26T17:20:27.727Z,7.20
2019-06-26T17:23:05.740Z,6.55
2019-06-26T17:25:26.540Z,7.40
2019-06-26T17:27:55.163Z,7.05
2019-06-26T17:30:24.022Z,6.53
2019-06-26T17:32:52.563Z,7.25
2019-06-26T17:35:21.164Z,7.53
2019-06-26T17:37:49.871Z,19.05
2019-06-26T17:40:18.583Z,8.10
2019-06-26T17:42:47.158Z,6.65
2019-06-26T17:45:16.120Z,6.60
2019-06-26T17:47:44.738Z,7.20
2019-06-26T17:50:13.439Z,8.35
2019-06-26T17:52:41.966Z,7.95
2019-06-26T17:55:11.150Z,7.12
2019-06-26T17:57:39.839Z,7.55
2019-06-26T18:00:09.537Z,6.58
2019-06-26T18:02:38.050Z,7.60
2019-06-26T18:05:07.757Z,6.75
2019-06-26T18:07:36.241Z,6.87
2019-06-26T18:10:06.219Z,7.47
2019-06-26T18:12:34.744Z,7.22
2019-06-26T18:15:03.435Z,6.30
2019-06-26T18:17:31.956Z,7.05
2019-06-26T18:20:00.665Z,6.92
2019-06-26T18:22:29.224Z,6.53
2019-06-26T18:24:57.799Z,7.35
2019-06-26T18:27:26.369Z,7.30
2019-06-26T18:29:54.893Z,6.65
2019-06-26T18:32:23.441Z,7.42
2019-06-26T18:34:51.981Z,7.30
2019-06-26T18:37:20.626Z,7.62
2019-06-26T18:39:49.150Z,7.37
2019-06-26T18:42:17.668Z,7.62
2019-06-26T18:44:46.202Z,7.50
2019-06-26T18:47:14.756Z,7.03
2019-06-26T18:49:43.327Z,6.47
2019-06-26T18:52:11.884Z,7.37
2019-06-26T18:54:40.445Z,6.75
2019-06-26T18:57:08.976Z,6.55
2019-06-26T18:59:37.507Z,6.67
2019-06-26T19:02:06.100Z,6.58
2019-06-26T19:04:34.653Z,7.08
2019-06-26T19:07:03.188Z,6.70
2019-06-26T19:09:31.738Z,6.62
2019-06-26T19:12:00.385Z,7.22
2019-06-26T19:14:28.951Z,7.12
2019-06-26T19:16:57.489Z,6.67
2019-06-26T19:19:26.021Z,6.80
2019-06-26T19:21:54.545Z,6.50
2019-06-26T19:24:23.138Z,6.47
2019-06-26T19:26:51.627Z,6.22
2019-06-26T19:29:20.194Z,6.70
2019-06-26T19:34:36.207Z,6.25
2019-06-26T19:37:04.823Z,6.15
2019-06-26T19:39:33.380Z,6.40
2019-06-26T19:42:02.203Z,6.40
2019-06-26T19:44:31.131Z,6.60
2019-06-26T19:46:59.734Z,6.33
2019-06-26T19:49:28.289Z,6.28
2019-06-26T19:51:56.817Z,6.75
2019-06-26T19:54:27.834Z,6.37
2019-06-26T19:56:55.767Z,5.87
2019-06-26T19:59:24.289Z,6.28
2019-06-26T20:01:52.886Z,6.30
2019-06-26T20:04:21.490Z,6.53
2019-06-26T20:06:50.032Z,6.80
2019-06-26T20:09:18.614Z,6.42
2019-06-26T20:11:47.164Z,5.87
2019-06-26T20:14:15.678Z,6.03
2019-06-26T20:16:44.385Z,6.75
2019-06-26T20:19:12.901Z,6.10
2019-06-26T20:21:41.415Z,5.95
2019-06-26T20:24:10.038Z,6.80
2019-06-26T20:26:38.834Z,6.17
2019-06-26T20:29:07.453Z,7.12
2019-06-26T20:31:35.978Z,6.50
2019-06-26T20:34:04.567Z,6.80
2019-06-26T20:36:33.086Z,6.03
2019-06-26T20:39:01.735Z,5.95
2019-06-26T20:41:30.369Z,5.53
2019-06-26T20:43:58.925Z,6.08
2019-06-26T20:46:27.437Z,5.83
2019-06-26T20:48:55.969Z,5.87
2019-06-26T20:51:24.511Z,6.47
2019-06-26T20:53:53.338Z,5.75
2019-06-26T20:56:25.570Z,5.08
2019-06-26T20:58:53.827Z,5.40
2019-06-26T21:01:22.316Z,5.42
2019-06-26T21:03:50.862Z,5.72
2019-06-26T21:06:19.377Z,6.15
2019-06-26T21:08:47.913Z,5.62
2019-06-26T21:11:16.461Z,5.90
2019-06-26T21:13:45.090Z,5.87
2019-06-26T21:16:13.630Z,5.63
2019-06-26T21:18:42.422Z,5.47
2019-06-26T21:21:10.965Z,5.83
2019-06-26T21:23:39.481Z,5.05
2019-06-26T21:26:08.121Z,5.95
2019-06-26T21:28:36.763Z,5.47
2019-06-26T21:31:05.291Z,6.15
2019-06-26T21:33:33.825Z,5.50
2019-06-26T21:36:02.360Z,5.12
2019-06-26T21:38:30.959Z,6.12
2019-06-26T21:40:59.580Z,5.10
2019-06-26T21:43:28.611Z,4.92
2019-06-26T21:45:57.117Z,5.33
2019-06-26T21:48:25.724Z,4.95
2019-06-26T21:50:54.230Z,5.28
2019-06-26T21:53:22.836Z,4.70
2019-06-26T21:55:51.363Z,5.45
2019-06-26T21:58:20.059Z,4.80
2019-06-26T22:00:48.842Z,5.35
2019-06-26T22:03:17.744Z,4.80
2019-06-26T22:05:46.251Z,4.87
2019-06-26T22:08:14.862Z,5.00
2019-06-26T22:10:43.524Z,4.90
2019-06-26T22:13:12.035Z,5.22
2019-06-26T22:15:40.627Z,5.28
2019-06-26T22:18:09.176Z,5.17
2019-06-26T22:20:37.965Z,5.27
2019-06-26T22:23:06.550Z,5.05
2019-06-26T22:25:49.943Z,5.22
2019-06-26T22:28:05.386Z,5.67
2019-06-26T22:30:33.987Z,4.85
2019-06-26T22:33:02.612Z,4.70
2019-06-26T22:35:31.286Z,5.12
2019-06-26T22:37:59.877Z,4.90
2019-06-26T22:40:29.972Z,5.08
2019-06-26T22:42:58.497Z,4.90
2019-06-26T22:45:27.058Z,4.60
2019-06-26T22:47:55.964Z,4.72
2019-06-26T22:50:24.604Z,4.70
2019-06-26T22:52:53.168Z,5.37
2019-06-26T22:55:21.683Z,5.40
2019-06-26T22:57:50.271Z,4.80
2019-06-26T23:00:21.603Z,5.30
2019-06-26T23:02:50.139Z,4.87
2019-06-26T23:05:18.724Z,4.97
2019-06-26T23:07:47.249Z,4.90
2019-06-26T23:10:16.026Z,4.90
2019-06-26T23:12:44.741Z,5.37
2019-06-26T23:15:13.612Z,5.13
2019-06-26T23:17:42.169Z,4.30
2019-06-26T23:20:10.875Z,4.83
2019-06-26T23:22:39.399Z,4.60
2019-06-26T23:25:08.401Z,4.62
2019-06-26T23:27:36.921Z,4.95
2019-06-26T23:30:14.283Z,4.30
2019-06-26T23:32:42.994Z,4.87
2019-06-26T23:35:11.519Z,4.60
2019-06-26T23:37:40.058Z,4.63
2019-06-26T23:40:08.835Z,4.53
2019-06-26T23:42:37.436Z,5.33
2019-06-26T23:45:09.127Z,4.58
2019-06-26T23:47:38.428Z,5.40
2019-06-26T23:50:07.310Z,4.72
2019-06-26T23:52:35.878Z,4.20
2019-06-26T23:55:05.941Z,4.67
2019-06-26T23:57:34.563Z,4.50
